Zuebak Airstrip

METAR AYNZ TAF N/A
30 °C
°C
-
°C
37m
Età
09:37:15
LT
08:37
UTC
0 ft

4.000

8.000

12.000

16.000

20.000

SCT 14.000
VFR
<?= Yii::t('app', 'Wind direction') ?> <?= Yii::t('app', 'of'); ?>
080°
18:38
Tramonto
66%
Umidità
Taglio del vento
Chiuso/Neve
Raggio visivo RWY
Condizione della RWY
Visibilità verticale
Visibilità minima
CAVOK
Tendenza
Correzione
Rapporto speciale
1003 hPa
QNH
METAR AYNZ 060800Z 08005G15KT 9999 SCT140 30/23 Q1003 RMK
Nubi sparse
4 kt
4 kt
10 km+
Vista
No
Base nuvolosa
5-15 kt
Vento
metar-taf.com/AYZZ

Metar-Taf.com

Decodificatore visivo

Noi e le terze parti seguiamo il tuo comportamento su internet con i cookie. Se continui, riteniamo che tu sia d'accordo con la nostra Politica sui cookie.